MET'MAP v2.0
soon released !

Expected late october,
this new version will be
more efficient, smarter,
and hosted on a brand new
server x3 powerfull...
...and still free !


Not compatible ?
Try the mobile version !

LOG IN : | Subscribe | Disclaimer | Who is Orbifly ? |
ICAO code :

TAF - LSZG Grenchen - 24 Nov 2020 10:24 UTC
Data Sources :     NOAA   


- Airport Elevation : 1411 ft
- IATA code : ZHI
- No reported NOTAMs.


LSZG - Grenchen

Latest METAR recorded : 2015/08/11 07:50 LSZG 110750Z 07006KT 9000 FEW020 SCT031 BKN043 22/18 Q1017 NOSIG
TAF TAF LSZG
Valid from the 24 at 09:00 until the 24 at 18:00 UTC


240825Z 2409/2418 VRB02KT 5000 BR BKN009
PROB40
TEMPO 2409/2412 4000
PROB40 2413/2418 SCT012

Source NOAA
ATIS : +41 32 396 96 33


MET'MAP, your aeronautical weather chart ! - Copyright ORBIFLY December 2007

Programming & Development : Alexandra Zaïnal
Co-Developer : Marc-Olivier Méhu
Technical & hardware support : Manuel Goepfert
Concept & Financing : Baudouin d'Aumeries